METAR-Meldungen aus der Umgebung

   
EDMO - Oberpfaffenhofen, Germany
Entfernung von der Station bis: SSO 18 km
Aktualisierung: 04-06-2020 13:50
Stark bewölkt  
Stark bewölkt  
   Wind: WSW 16.7 km/h
Wind: WSW 16.7 km/h
Temperatur: 17°C
Taupunkt: 11°C
Luftfeuchte: 68%
Luftdruck: 998 hPa
Bewölkt: Mostly Cloudy
Sichtbarkeit: Mehr als 10 km
Bewölkung: leicht bewölkt 3000 ft,
Stark bewölkt 4500 ft
EDMO 041150Z 24009KT 9999 FEW030 BKN045 17/11 Q0998
ETSL - Lechfeld (ger-Af, Germany
Entfernung von der Station bis: WSW 23 km
Aktualisierung: 04-06-2020 13:20
Bewölkt  
Bewölkt  
   Wind: SW 16.7 km/h
Wind: SW 16.7 km/h
Temperatur: 17°C
Taupunkt: 11°C
Luftfeuchte: 68%
Luftdruck: 998 hPa
Bewölkt: Overcast
Sichtbarkeit: Mehr als 10 km
Bewölkung: leicht bewölkt 2500 ft,
Stark bewölkt 5000 ft,
Bewölkt 12000 ft
ETSL 041120Z 23009KT 9999 FEW025 BKN050 OVC120 17/11 Q0998 BLU
EDMA - Augsburg/Mulhaus, Germany
Entfernung von der Station bis: NW 30 km
Aktualisierung: 04-06-2020 13:50
Bewölkt  
Bewölkt  
   Wind: SW 22.2 km/h
Wind: SW 22.2 km/h
Temperatur: 19°C
Taupunkt: 12°C
Luftfeuchte: 64%
Luftdruck: 998 hPa
Bewölkt: Overcast
Sichtbarkeit: Mehr als 10 km
Bewölkung: Teilweise bewölkt 3000 ft,
Stark bewölkt 4800 ft,
Bewölkt 6500 ft
EDMA 041150Z 23012KT 9999 SCT030 BKN048 OVC065 19/12 Q0998
ETHA - Altenstadt/Schon, Germany
Entfernung von der Station bis: SSW 49 km
Aktualisierung: 04-06-2020 13:20
Leichter Niederschlag möglich, Stark bewölkt  
Leichter Niederschlag möglich, Stark bewölkt  
   Wind: Westen 27.8 km/h
Wind: Westen 27.8 km/h
Temperatur: 14°C
Taupunkt: 11°C
Luftfeuchte: 82%
Luftdruck: 999 hPa
Bewölkt: Mostly Cloudy
Sichtbarkeit: Mehr als 10 km
Bewölkung: leicht bewölkt 2000 ft,
Stark bewölkt 3500 ft
ETHA 041120Z 28015KT 9999 -RA FEW020 BKN035 14/11 Q0999 BLU BLU TEMPO WHT
EDDM - Munich-Flughafen, Germany
Entfernung von der Station bis: ONO 50 km
Aktualisierung: 04-06-2020 13:50
Stark bewölkt  
Stark bewölkt  
   Wind: WSW 11.1 km/h
Wind: WSW 11.1 km/h
Temperatur: 19°C
Taupunkt: 11°C
Luftfeuchte: 60%
Luftdruck: 998 hPa
Bewölkt: Mostly Cloudy
Sichtbarkeit: Mehr als 10 km
Bewölkung: Teilweise bewölkt 3300 ft,
Stark bewölkt 4700 ft
EDDM 041150Z 25006KT 210V290 9999 SCT033 BKN047 19/11 Q0998 NOSIG
 

Script entwickelt von  Saratoga-weather.org Angepasst für das Template von  Weerstation Leuven